createdAt,value
2018-04-12T00:02:28.733Z,73.94
2018-04-12T00:04:58.010Z,73.83
2018-04-12T00:07:26.778Z,73.84
2018-04-12T00:09:56.109Z,74.14
2018-04-12T00:12:24.462Z,73.83
2018-04-12T00:14:53.419Z,73.78
2018-04-12T00:17:22.164Z,74.05
2018-04-12T00:19:51.350Z,73.83
2018-04-12T00:22:19.744Z,73.99
2018-04-12T00:24:48.417Z,73.83
2018-04-12T00:27:18.100Z,74.03
2018-04-12T00:29:46.768Z,74.28
2018-04-12T00:32:17.720Z,74.16
2018-04-12T00:34:46.849Z,74.10
2018-04-12T00:37:15.540Z,74.53
2018-04-12T00:39:44.485Z,74.60
2018-04-12T00:42:13.026Z,74.54
2018-04-12T00:44:42.230Z,74.29
2018-04-12T00:47:10.588Z,74.32
2018-04-12T00:49:39.822Z,74.19
2018-04-12T00:52:08.258Z,74.55
2018-04-12T00:54:36.645Z,74.57
2018-04-12T00:57:06.413Z,74.63
2018-04-12T00:59:35.648Z,74.71
2018-04-12T01:02:04.704Z,74.80
2018-04-12T01:04:33.078Z,74.84
2018-04-12T01:07:02.101Z,74.62
2018-04-12T01:09:31.266Z,74.93
2018-04-12T01:12:00.207Z,74.97
2018-04-12T01:14:28.993Z,75.00
2018-04-12T01:16:57.385Z,75.10
2018-04-12T01:19:25.771Z,74.96
2018-04-12T01:21:55.005Z,74.95
2018-04-12T01:24:24.222Z,74.62
2018-04-12T01:26:52.619Z,74.57
2018-04-12T01:29:20.995Z,74.89
2018-04-12T01:31:49.403Z,74.37
2018-04-12T01:34:18.695Z,76.14
2018-04-12T01:36:47.616Z,76.08
2018-04-12T01:39:15.968Z,76.42
2018-04-12T01:41:46.043Z,76.44
2018-04-12T01:44:14.372Z,76.81
2018-04-12T01:46:44.585Z,76.95
2018-04-12T01:49:13.757Z,76.77
2018-04-12T01:51:42.264Z,77.04
2018-04-12T01:54:11.029Z,77.28
2018-04-12T01:56:39.780Z,77.78
2018-04-12T01:59:08.870Z,77.55
2018-04-12T02:01:37.235Z,78.09
2018-04-12T02:04:05.643Z,77.87
2018-04-12T02:06:34.984Z,78.22
2018-04-12T02:09:04.482Z,78.04
2018-04-12T02:11:34.566Z,78.03
2018-04-12T02:14:03.185Z,78.78
2018-04-12T02:16:31.790Z,78.99
2018-04-12T02:19:01.074Z,79.08
2018-04-12T02:21:29.459Z,78.96
2018-04-12T02:23:57.892Z,79.28
2018-04-12T02:26:27.066Z,79.12
2018-04-12T02:28:55.431Z,79.03
2018-04-12T02:31:23.916Z,79.36
2018-04-12T02:33:53.250Z,79.44
2018-04-12T02:36:23.417Z,79.70
2018-04-12T02:38:51.788Z,79.83
2018-04-12T02:41:20.731Z,79.55
2018-04-12T02:43:49.089Z,79.61
2018-04-12T02:46:18.439Z,79.64
2018-04-12T02:48:47.110Z,79.89
2018-04-12T02:51:15.784Z,80.21
2018-04-12T02:53:44.113Z,79.83
2018-04-12T02:56:12.785Z,80.47
2018-04-12T02:58:41.588Z,80.50
2018-04-12T03:01:10.070Z,80.27
2018-04-12T03:03:39.244Z,80.46
2018-04-12T03:06:08.468Z,80.14
2018-04-12T03:08:36.849Z,80.11
2018-04-12T03:11:06.743Z,80.14
2018-04-12T03:13:35.079Z,79.86
2018-04-12T03:16:03.713Z,80.26
2018-04-12T03:18:32.993Z,80.57
2018-04-12T03:21:02.416Z,80.22
2018-04-12T03:23:31.773Z,80.22
2018-04-12T03:26:01.936Z,80.36
2018-04-12T03:28:31.359Z,80.12
2018-04-12T03:30:59.689Z,79.75
2018-04-12T03:33:28.872Z,80.05
2018-04-12T03:35:58.265Z,79.91
2018-04-12T03:38:26.697Z,79.60
2018-04-12T03:40:55.054Z,79.61
2018-04-12T03:43:23.424Z,79.90
2018-04-12T03:45:51.780Z,79.84
2018-04-12T03:48:20.188Z,79.89
2018-04-12T03:50:49.693Z,79.89
2018-04-12T03:53:18.916Z,80.26
2018-04-12T03:55:48.536Z,79.65
2018-04-12T03:58:17.691Z,79.47
2018-04-12T04:00:47.186Z,79.53
2018-04-12T04:03:16.956Z,79.55
2018-04-12T04:05:46.461Z,79.62
2018-04-12T04:08:15.683Z,79.67
2018-04-12T04:10:44.037Z,79.94
2018-04-12T04:13:13.294Z,80.09
2018-04-12T04:15:54.024Z,79.68
2018-04-12T04:18:34.760Z,79.22
2018-04-12T04:21:19.738Z,79.57
2018-04-12T04:23:48.957Z,79.16
2018-04-12T04:26:18.473Z,79.24
2018-04-12T04:28:46.973Z,79.22
2018-04-12T04:31:15.318Z,79.05
2018-04-12T04:33:43.730Z,79.26
2018-04-12T04:36:13.162Z,79.08
2018-04-12T04:38:42.624Z,78.73
2018-04-12T04:41:10.993Z,78.96
2018-04-12T04:43:39.397Z,78.79
2018-04-12T04:46:08.701Z,79.05
2018-04-12T04:48:38.429Z,78.90
2018-04-12T04:51:07.770Z,78.35
2018-04-12T04:53:37.050Z,78.72
2018-04-12T04:56:05.985Z,78.38
2018-04-12T04:58:35.064Z,78.91
2018-04-12T05:01:03.436Z,79.07
2018-04-12T05:03:32.691Z,79.13
2018-04-12T05:06:01.051Z,79.17
2018-04-12T05:08:29.466Z,79.00
2018-04-12T05:10:58.677Z,79.37
2018-04-12T05:13:27.039Z,79.10
2018-04-12T05:15:55.898Z,78.68
2018-04-12T05:18:24.980Z,78.90
2018-04-12T05:20:54.534Z,78.50
2018-04-12T05:23:24.828Z,78.66
2018-04-12T05:25:53.221Z,78.41
2018-04-12T05:28:21.858Z,78.52
2018-04-12T05:30:51.858Z,78.32
2018-04-12T05:33:20.809Z,78.41
2018-04-12T05:35:50.098Z,78.47
2018-04-12T05:38:19.497Z,78.27
2018-04-12T05:40:47.879Z,78.39
2018-04-12T05:43:17.536Z,78.48
2018-04-12T05:45:46.626Z,78.44
2018-04-12T05:48:15.375Z,78.73
2018-04-12T05:50:43.807Z,79.00
2018-04-12T05:53:12.177Z,78.54
2018-04-12T05:55:40.512Z,78.39
2018-04-12T05:58:09.179Z,78.64
2018-04-12T06:00:37.549Z,78.67
2018-04-12T06:03:05.911Z,78.19
2018-04-12T06:05:34.859Z,78.33
2018-04-12T06:08:04.579Z,78.28
2018-04-12T06:10:32.982Z,78.09
2018-04-12T06:13:02.641Z,77.42
2018-04-12T06:15:30.974Z,77.35
2018-04-12T06:18:00.289Z,77.67
2018-04-12T06:20:29.718Z,77.01
2018-04-12T06:22:58.113Z,77.20
2018-04-12T06:25:26.450Z,77.12
2018-04-12T06:27:54.804Z,77.03
2018-04-12T06:30:24.231Z,77.27
2018-04-12T06:32:52.631Z,77.08
2018-04-12T06:35:21.189Z,77.28
2018-04-12T06:37:49.583Z,77.09
2018-04-12T06:40:18.067Z,76.55
2018-04-12T06:42:46.482Z,76.26
2018-04-12T06:45:15.214Z,75.53
2018-04-12T06:47:43.562Z,75.54
2018-04-12T06:50:11.964Z,75.51
2018-04-12T06:52:40.311Z,75.25
2018-04-12T06:55:08.957Z,74.46
2018-04-12T06:57:39.257Z,74.62
2018-04-12T07:00:08.868Z,74.36
2018-04-12T07:02:37.457Z,73.44
2018-04-12T07:05:06.438Z,73.34
2018-04-12T07:07:35.290Z,73.70
2018-04-12T07:10:03.896Z,72.53
2018-04-12T07:12:33.238Z,72.05
2018-04-12T07:15:02.508Z,71.17
2018-04-12T07:17:30.948Z,71.08
2018-04-12T07:20:00.058Z,69.67
2018-04-12T07:22:28.516Z,70.08
2018-04-12T07:24:57.005Z,69.56
2018-04-12T07:27:27.958Z,68.77
2018-04-12T07:29:57.865Z,68.15
2018-04-12T07:32:26.280Z,67.64
2018-04-12T07:34:54.845Z,67.31
2018-04-12T07:37:23.256Z,66.36
2018-04-12T07:39:51.925Z,65.66
2018-04-12T07:42:20.325Z,65.13
2018-04-12T07:44:48.667Z,66.07
2018-04-12T07:47:17.032Z,65.86
2018-04-12T07:49:48.123Z,65.45
2018-04-12T07:52:17.394Z,65.95
2018-04-12T07:54:45.732Z,65.18
2018-04-12T07:57:14.948Z,65.34
2018-04-12T07:59:43.946Z,65.08
2018-04-12T08:02:13.873Z,64.37
2018-04-12T08:04:42.272Z,65.19
2018-04-12T08:07:12.491Z,65.02
2018-04-12T08:09:42.409Z,65.24
2018-04-12T08:12:11.562Z,64.43
2018-04-12T08:14:40.870Z,64.09
2018-04-12T08:17:09.534Z,64.39
2018-04-12T08:19:39.582Z,64.12
2018-04-12T08:22:08.578Z,63.77
2018-04-12T08:24:38.584Z,63.84
2018-04-12T08:27:07.251Z,63.22
2018-04-12T08:29:35.637Z,62.57
2018-04-12T08:32:04.294Z,62.75
2018-04-12T08:34:33.693Z,60.74
2018-04-12T08:37:02.436Z,60.57
2018-04-12T08:39:30.787Z,60.16
2018-04-12T08:41:59.125Z,58.71
2018-04-12T08:44:27.858Z,59.42
2018-04-12T08:46:57.033Z,59.41
2018-04-12T08:49:25.978Z,58.68
2018-04-12T08:51:55.040Z,58.90
2018-04-12T08:54:23.775Z,56.08
2018-04-12T08:56:52.132Z,54.87
2018-04-12T08:59:20.544Z,55.39
2018-04-12T09:01:49.784Z,54.80
2018-04-12T09:04:18.147Z,55.67
2018-04-12T09:06:46.504Z,55.04
2018-04-12T09:09:17.386Z,53.96
2018-04-12T09:11:45.717Z,53.79
2018-04-12T09:14:14.136Z,54.65
2018-04-12T09:16:42.754Z,53.87
2018-04-12T09:19:13.138Z,53.25
2018-04-12T09:21:41.478Z,54.00
2018-04-12T09:24:10.634Z,54.64
2018-04-12T09:26:39.773Z,53.06
2018-04-12T09:29:08.819Z,52.81
2018-04-12T09:31:37.307Z,51.92
2018-04-12T09:34:06.474Z,52.73
2018-04-12T09:36:35.104Z,51.27
2018-04-12T09:39:04.521Z,51.46
2018-04-12T09:41:34.067Z,50.59
2018-04-12T09:44:02.705Z,51.34
2018-04-12T09:46:31.802Z,50.46
2018-04-12T09:49:00.991Z,50.38
2018-04-12T09:51:31.140Z,51.16
2018-04-12T09:54:00.743Z,50.42
2018-04-12T09:56:30.432Z,50.98
2018-04-12T09:58:59.805Z,49.36
2018-04-12T10:01:28.570Z,48.49
2018-04-12T10:03:58.664Z,48.32
2018-04-12T10:09:33.185Z,48.21
2018-04-12T10:12:01.521Z,47.74
2018-04-12T10:14:29.875Z,45.22
2018-04-12T10:16:58.216Z,44.75
2018-04-12T10:19:28.842Z,46.54
2018-04-12T10:21:58.438Z,42.02
2018-04-12T10:24:27.749Z,43.69
2018-04-12T10:26:56.121Z,41.62
2018-04-12T10:29:25.703Z,41.03
2018-04-12T10:31:54.021Z,41.59
2018-04-12T10:34:22.391Z,39.79
2018-04-12T10:36:52.139Z,39.18
2018-04-12T10:39:20.605Z,38.61
2018-04-12T10:41:49.315Z,39.23
2018-04-12T10:44:18.570Z,39.80
2018-04-12T10:46:46.992Z,38.83
2018-04-12T10:49:15.789Z,38.09
2018-04-12T10:51:44.871Z,39.07
2018-04-12T10:54:14.893Z,39.48
2018-04-12T10:56:44.055Z,39.45
2018-04-12T10:59:13.851Z,40.46
2018-04-12T11:01:42.251Z,39.68
2018-04-12T11:04:10.719Z,39.02
2018-04-12T11:06:39.062Z,38.80
2018-04-12T11:09:07.463Z,37.17
2018-04-12T11:11:35.836Z,37.55
2018-04-12T11:14:04.207Z,36.22
2018-04-12T11:16:33.444Z,34.99
2018-04-12T11:19:01.789Z,34.98
2018-04-12T11:21:30.795Z,35.40
2018-04-12T11:23:59.931Z,35.03
2018-04-12T11:26:28.286Z,34.15
2018-04-12T11:28:57.217Z,33.57
2018-04-12T11:31:26.537Z,33.25
2018-04-12T11:33:54.892Z,33.69
2018-04-12T11:36:25.843Z,34.37
2018-04-12T11:38:55.121Z,35.45
2018-04-12T11:41:24.298Z,34.65
2018-04-12T11:43:53.580Z,33.91
2018-04-12T11:46:22.553Z,32.38
2018-04-12T11:48:50.950Z,31.96
2018-04-12T11:51:19.847Z,31.50
2018-04-12T11:53:48.255Z,31.84
2018-04-12T11:56:16.645Z,31.92
2018-04-12T11:58:47.071Z,31.11
2018-04-12T12:01:16.934Z,30.36
2018-04-12T12:03:45.606Z,30.10
2018-04-12T12:06:14.521Z,32.06
2018-04-12T12:08:42.917Z,32.12
2018-04-12T12:11:12.591Z,31.99
2018-04-12T12:13:42.700Z,32.72
2018-04-12T12:16:11.093Z,32.68
2018-04-12T12:18:40.382Z,34.11
2018-04-12T12:21:11.105Z,36.22
2018-04-12T12:23:39.727Z,35.96
2018-04-12T12:26:08.989Z,34.94
2018-04-12T12:28:37.385Z,33.86
2018-04-12T12:31:06.656Z,32.15
2018-04-12T12:33:36.199Z,32.64
2018-04-12T12:36:05.931Z,31.68
2018-04-12T12:38:35.956Z,34.76
2018-04-12T12:41:04.332Z,34.46
2018-04-12T12:43:33.739Z,33.96
2018-04-12T12:46:03.003Z,33.25
2018-04-12T12:48:32.299Z,33.18
2018-04-12T12:51:02.359Z,33.00
2018-04-12T12:53:31.706Z,32.93
2018-04-12T12:56:01.588Z,32.88
2018-04-12T12:58:30.136Z,34.59
2018-04-12T13:00:58.461Z,33.29
2018-04-12T13:03:27.775Z,33.26
2018-04-12T13:05:56.225Z,34.45
2018-04-12T13:08:25.517Z,33.37
2018-04-12T13:10:53.976Z,33.59
2018-04-12T13:13:23.431Z,33.87
2018-04-12T13:15:51.757Z,34.29
2018-04-12T13:18:20.205Z,35.03
2018-04-12T13:20:49.529Z,36.13
2018-04-12T13:23:17.913Z,36.12
2018-04-12T13:25:46.339Z,35.87
2018-04-12T13:28:14.916Z,36.19
2018-04-12T13:30:44.449Z,35.87
2018-04-12T13:33:13.683Z,36.39
2018-04-12T13:35:42.757Z,36.82
2018-04-12T13:38:11.965Z,36.22
2018-04-12T13:40:40.353Z,37.20
2018-04-12T13:43:08.690Z,36.42
2018-04-12T13:45:39.029Z,36.80
2018-04-12T13:48:07.464Z,36.60
2018-04-12T13:50:37.477Z,36.76
2018-04-12T13:53:05.789Z,36.97
2018-04-12T13:55:35.706Z,36.68
2018-04-12T13:58:04.452Z,37.10
2018-04-12T14:00:32.825Z,37.13
2018-04-12T14:03:01.214Z,36.23
2018-04-12T14:05:29.636Z,36.47
2018-04-12T14:07:58.502Z,37.66
2018-04-12T14:10:26.901Z,38.38
2018-04-12T14:12:55.661Z,38.63
2018-04-12T14:15:24.810Z,38.96
2018-04-12T14:17:53.149Z,39.06
2018-04-12T14:20:26.011Z,38.88
2018-04-12T14:22:58.005Z,39.02
2018-04-12T14:25:27.935Z,39.62
2018-04-12T14:27:57.086Z,40.01
2018-04-12T14:30:26.212Z,40.61
2018-04-12T14:32:56.457Z,42.11
2018-04-12T14:35:26.918Z,40.92
2018-04-12T14:37:55.999Z,42.25
2018-04-12T14:40:25.225Z,42.08
2018-04-12T14:42:54.229Z,43.34
2018-04-12T14:45:23.829Z,43.50
2018-04-12T14:47:54.231Z,43.90
2018-04-12T14:50:22.649Z,43.05
2018-04-12T14:52:51.213Z,43.33
2018-04-12T14:55:20.567Z,42.26
2018-04-12T14:57:48.948Z,40.37
2018-04-12T15:00:17.985Z,40.59
2018-04-12T15:02:47.564Z,41.16
2018-04-12T15:05:16.600Z,42.08
2018-04-12T15:07:46.047Z,41.35
2018-04-12T15:10:14.400Z,41.62
2018-04-12T15:12:44.127Z,38.67
2018-04-12T15:15:13.351Z,38.91
2018-04-12T15:17:41.683Z,39.50
2018-04-12T15:20:10.117Z,40.47
2018-04-12T15:22:39.286Z,40.09
2018-04-12T15:25:07.731Z,41.59
2018-04-12T15:27:36.095Z,40.86
2018-04-12T15:30:05.334Z,40.39
2018-04-12T15:32:35.070Z,39.55
2018-04-12T15:35:03.632Z,40.49
2018-04-12T15:37:32.240Z,40.82
2018-04-12T15:40:02.236Z,41.03
2018-04-12T15:42:31.726Z,41.20
2018-04-12T15:45:00.384Z,39.77
2018-04-12T15:47:29.590Z,39.99
2018-04-12T15:49:59.094Z,40.88
2018-04-12T15:52:28.352Z,40.54
2018-04-12T15:54:57.738Z,40.73
2018-04-12T15:57:26.470Z,39.59
2018-04-12T15:59:54.871Z,39.50
2018-04-12T16:02:23.823Z,40.12
2018-04-12T16:04:52.236Z,40.93
2018-04-12T16:07:20.596Z,40.92
2018-04-12T16:09:50.626Z,41.74
2018-04-12T16:12:19.508Z,41.54
2018-04-12T16:14:47.911Z,41.59
2018-04-12T16:17:17.235Z,41.51
2018-04-12T16:19:45.825Z,40.27
2018-04-12T16:22:15.100Z,40.84
2018-04-12T16:24:44.329Z,40.01
2018-04-12T16:27:14.393Z,40.94
2018-04-12T16:29:42.772Z,38.89
2018-04-12T16:32:11.978Z,39.37
2018-04-12T16:34:41.110Z,40.17
2018-04-12T16:37:10.047Z,39.62
2018-04-12T16:39:38.919Z,39.17
2018-04-12T16:42:09.209Z,38.30
2018-04-12T16:44:37.931Z,38.63
2018-04-12T16:47:07.664Z,39.88
2018-04-12T16:49:36.816Z,38.75
2018-04-12T16:52:05.877Z,39.04
2018-04-12T16:54:35.136Z,39.69
2018-04-12T16:57:04.905Z,39.23
2018-04-12T16:59:34.796Z,39.17
2018-04-12T17:02:04.333Z,41.16
2018-04-12T17:04:33.351Z,40.41
2018-04-12T17:07:03.474Z,41.62
2018-04-12T17:09:32.576Z,42.30
2018-04-12T17:12:02.693Z,42.82
2018-04-12T17:14:31.374Z,42.33
2018-04-12T17:17:00.670Z,42.79
2018-04-12T17:19:29.962Z,42.51
2018-04-12T17:21:59.141Z,43.93
2018-04-12T17:24:27.748Z,43.98
2018-04-12T17:26:56.181Z,43.53
2018-04-12T17:29:25.480Z,41.92
2018-04-12T17:31:54.046Z,40.92
2018-04-12T17:34:22.933Z,41.03
2018-04-12T17:36:52.012Z,39.69
2018-04-12T17:39:21.229Z,38.65
2018-04-12T17:41:49.702Z,39.13
2018-04-12T17:44:19.821Z,38.71
2018-04-12T17:46:48.192Z,37.38
2018-04-12T17:49:18.138Z,37.53
2018-04-12T17:51:47.986Z,38.94
2018-04-12T17:54:16.827Z,40.63
2018-04-12T17:56:46.464Z,41.40
2018-04-12T17:59:15.755Z,41.72
2018-04-12T18:01:44.925Z,42.03
2018-04-12T18:04:13.301Z,42.38
2018-04-12T18:06:42.184Z,42.98
2018-04-12T18:09:11.104Z,43.80
2018-04-12T18:11:39.892Z,43.71
2018-04-12T18:14:08.446Z,43.80
2018-04-12T18:16:38.547Z,44.37
2018-04-12T18:19:08.195Z,45.59
2018-04-12T18:21:38.153Z,45.18
2018-04-12T18:24:07.439Z,45.06
2018-04-12T18:26:36.750Z,45.87
2018-04-12T18:29:07.051Z,47.12
2018-04-12T18:31:35.516Z,49.24
2018-04-12T18:34:04.693Z,50.39
2018-04-12T18:36:34.310Z,51.14
2018-04-12T18:39:02.921Z,50.78
2018-04-12T18:41:31.748Z,50.65
2018-04-12T18:44:01.853Z,51.20
2018-04-12T18:46:31.296Z,51.26
2018-04-12T18:49:00.465Z,50.68
2018-04-12T18:51:29.097Z,50.68
2018-04-12T18:53:59.744Z,50.39
2018-04-12T18:56:29.314Z,50.82
2018-04-12T18:58:59.306Z,50.18
2018-04-12T19:01:30.392Z,50.99
2018-04-12T19:03:58.994Z,51.41
2018-04-12T19:06:27.406Z,51.35
2018-04-12T19:08:55.773Z,51.69
2018-04-12T19:11:24.124Z,53.82
2018-04-12T19:13:54.077Z,51.35
2018-04-12T19:16:24.040Z,50.50
2018-04-12T19:18:52.360Z,51.79
2018-04-12T19:21:20.729Z,51.24
2018-04-12T19:23:49.285Z,50.63
2018-04-12T19:26:17.769Z,50.78
2018-04-12T19:28:47.559Z,50.51
2018-04-12T19:31:16.482Z,50.15
2018-04-12T19:33:44.807Z,50.35
2018-04-12T19:36:13.432Z,50.51
2018-04-12T19:38:42.520Z,49.74
2018-04-12T19:41:11.152Z,49.94
2018-04-12T19:43:39.741Z,51.39
2018-04-12T19:46:09.030Z,50.04
2018-04-12T19:48:38.085Z,49.23
2018-04-12T19:51:07.259Z,49.27
2018-04-12T19:53:36.598Z,49.89
2018-04-12T19:56:05.418Z,49.70
2018-04-12T19:58:35.498Z,50.78
2018-04-12T20:01:04.663Z,50.81
2018-04-12T20:03:33.154Z,50.82
2018-04-12T20:06:01.510Z,51.08
2018-04-12T20:08:30.551Z,51.42
2018-04-12T20:11:00.482Z,52.17
2018-04-12T20:13:28.841Z,52.49
2018-04-12T20:15:57.257Z,52.77
2018-04-12T20:18:26.975Z,52.17
2018-04-12T20:20:55.588Z,53.37
2018-04-12T20:23:25.210Z,54.19
2018-04-12T20:25:54.316Z,54.66
2018-04-12T20:28:24.474Z,55.46
2018-04-12T20:30:53.250Z,56.01
2018-04-12T20:33:21.602Z,55.29
2018-04-12T20:35:49.991Z,55.75
2018-04-12T20:38:20.563Z,55.67
2018-04-12T20:40:48.986Z,56.71
2018-04-12T20:43:17.314Z,54.86
2018-04-12T20:45:45.716Z,56.23
2018-04-12T20:48:14.621Z,56.50
2018-04-12T20:50:44.510Z,57.42
2018-04-12T20:53:16.467Z,57.49
2018-04-12T20:55:45.172Z,57.85
2018-04-12T20:58:15.477Z,57.96
2018-04-12T21:00:44.933Z,58.15
2018-04-12T21:03:13.898Z,58.49
2018-04-12T21:05:43.105Z,58.69
2018-04-12T21:08:11.460Z,58.29
2018-04-12T21:10:41.538Z,58.22
2018-04-12T21:13:11.547Z,58.23
2018-04-12T21:15:40.631Z,58.10
2018-04-12T21:18:09.881Z,58.09
2018-04-12T21:20:38.241Z,57.96
2018-04-12T21:23:08.051Z,58.40
2018-04-12T21:25:36.466Z,59.13
2018-04-12T21:28:04.886Z,60.34
2018-04-12T21:30:33.490Z,61.16
2018-04-12T21:33:01.923Z,61.27
2018-04-12T21:35:31.268Z,62.10
2018-04-12T21:37:59.596Z,61.90
2018-04-12T21:40:29.919Z,61.58
2018-04-12T21:42:58.291Z,61.00
2018-04-12T21:45:27.987Z,60.30
2018-04-12T21:47:57.477Z,60.03
2018-04-12T21:50:25.970Z,59.58
2018-04-12T21:52:54.309Z,59.67
2018-04-12T21:55:23.755Z,59.68
2018-04-12T21:57:53.272Z,58.72
2018-04-12T22:00:21.645Z,58.45
2018-04-12T22:02:51.715Z,58.46
2018-04-12T22:05:22.374Z,57.83
2018-04-12T22:07:51.827Z,58.00
2018-04-12T22:10:20.529Z,55.93
2018-04-12T22:12:52.539Z,54.16
2018-04-12T22:15:22.133Z,53.68
2018-04-12T22:17:50.585Z,52.97
2018-04-12T22:20:19.704Z,53.67
2018-04-12T22:22:54.009Z,53.76
2018-04-12T22:25:22.978Z,53.91
2018-04-12T22:27:52.222Z,53.70
2018-04-12T22:30:22.799Z,54.86
2018-04-12T22:32:53.273Z,55.75
2018-04-12T22:35:22.798Z,56.83
2018-04-12T22:37:51.717Z,57.94
2018-04-12T22:40:20.850Z,58.84
2018-04-12T22:42:50.200Z,59.41
2018-04-12T22:45:19.146Z,59.72
2018-04-12T22:47:48.207Z,59.42
2018-04-12T22:50:16.972Z,59.83
2018-04-12T22:52:45.982Z,59.83
2018-04-12T22:55:15.485Z,60.97
2018-04-12T22:57:46.617Z,60.64
2018-04-12T23:00:16.631Z,60.44
2018-04-12T23:02:44.759Z,60.94
2018-04-12T23:05:15.020Z,61.33
2018-04-12T23:07:43.658Z,61.88
2018-04-12T23:10:13.117Z,61.91
2018-04-12T23:12:41.514Z,61.64
2018-04-12T23:15:10.553Z,62.30
2018-04-12T23:17:38.959Z,62.88
2018-04-12T23:20:08.007Z,63.66
2018-04-12T23:22:37.573Z,64.20
2018-04-12T23:25:06.698Z,64.62
2018-04-12T23:27:35.167Z,64.93
2018-04-12T23:30:03.531Z,65.01
2018-04-12T23:32:33.024Z,64.98
2018-04-12T23:35:01.362Z,65.06
2018-04-12T23:37:30.753Z,65.08
2018-04-12T23:39:59.181Z,64.76
2018-04-12T23:42:27.526Z,64.93
2018-04-12T23:44:56.645Z,64.56
2018-04-12T23:47:25.410Z,65.10
2018-04-12T23:49:55.359Z,64.78
2018-04-12T23:52:24.690Z,64.88
2018-04-12T23:54:53.106Z,65.18
2018-04-12T23:57:22.690Z,65.54
2018-04-12T23:59:51.839Z,65.68
